Time;durP1;ratioP1;P1;durP2;ratioP2;P2;SDS_P1;SDS_P2;PMS_P1;PMS_P2;Temp;Humidity;BMP_temperature;BMP_pressure;BME280_temperature;BME280_humidity;BME280_pressure;Samples;Min_cycle;Max_cycle;Signal;HPM_P1;HPM_P2
2021/12/12 00:00:46;;;;;;;;;;;23.30;51.80;;;;;;5118569;28;19932;-56
2021/12/12 00:03:20;;;;;;;;;;;23.20;51.80;;;;;;5117328;28;19927;-51
2021/12/12 00:05:53;;;;;;;;;;;23.20;51.80;;;;;;5117326;28;19924;-52
2021/12/12 00:08:21;;;;;;;;;;;23.30;51.80;;;;;;5117370;28;19924;-54
2021/12/12 00:10:50;;;;;;;;;;;23.20;51.80;;;;;;5117538;28;20023;-48
2021/12/12 00:13:21;;;;;;;;;;;23.20;51.80;;;;;;5116277;28;19927;-55
2021/12/12 00:15:49;;;;;;;;;;;23.20;51.80;;;;;;5117100;28;20010;-46
2021/12/12 00:18:16;;;;;;;;;;;23.20;51.80;;;;;;5099171;28;19924;-47
2021/12/12 00:20:45;;;;;;;;;;;23.20;51.80;;;;;;5117256;28;20305;-54
2021/12/12 00:23:12;;;;;;;;;;;23.20;51.80;;;;;;5116750;28;19928;-52
2021/12/12 00:25:44;;;;;;;;;;;23.20;51.80;;;;;;5116934;28;19930;-54
2021/12/12 00:28:12;;;;;;;;;;;23.20;51.80;;;;;;5117274;28;20306;-48
2021/12/12 00:30:39;;;;;;;;;;;23.20;51.80;;;;;;5115732;27;19927;-47
2021/12/12 00:33:06;;;;;;;;;;;23.20;51.80;;;;;;5117094;28;19946;-47
2021/12/12 00:35:33;;;;;;;;;;;23.20;51.80;;;;;;5116702;28;19928;-55
2021/12/12 00:38:04;;;;;;;;;;;23.20;51.80;;;;;;5116988;28;19924;-55
2021/12/12 00:40:35;;;;;;;;;;;23.20;51.80;;;;;;5116676;28;19973;-52
2021/12/12 00:43:14;;;;;;;;;;;23.20;51.80;;;;;;5116911;28;19927;-52
2021/12/12 00:45:41;;;;;;;;;;;23.20;51.80;;;;;;5115630;28;19924;-54
2021/12/12 00:48:08;;;;;;;;;;;23.20;51.80;;;;;;5116497;28;19932;-49
2021/12/12 00:50:38;;;;;;;;;;;23.20;51.80;;;;;;5116326;28;19931;-49
2021/12/12 00:53:06;;;;;;;;;;;23.20;51.80;;;;;;5115297;28;19924;-49
2021/12/12 00:55:37;;;;;;;;;;;23.20;51.80;;;;;;5116116;28;19981;-48
2021/12/12 00:58:05;;;;;;;;;;;23.20;51.80;;;;;;5116680;28;19988;-55
2021/12/12 01:00:37;;;;;;;;;;;23.20;51.80;;;;;;5115330;27;19930;-53
2021/12/12 01:03:05;;;;;;;;;;;23.10;51.70;;;;;;5116491;28;19923;-50
2021/12/12 01:05:32;;;;;;;;;;;23.10;51.70;;;;;;5116403;28;19924;-52
2021/12/12 01:07:59;;;;;;;;;;;23.10;51.70;;;;;;5116632;28;19924;-51
2021/12/12 01:10:31;;;;;;;;;;;23.10;51.70;;;;;;5081268;28;19923;-51
2021/12/12 01:13:00;;;;;;;;;;;23.10;51.70;;;;;;5116005;28;19976;-53
2021/12/12 01:15:53;;;;;;;;;;;23.10;51.70;;;;;;5114665;27;19924;-52
2021/12/12 01:18:23;;;;;;;;;;;23.10;51.70;;;;;;5111527;28;19924;-48
2021/12/12 01:20:53;;;;;;;;;;;23.10;51.70;;;;;;5115785;28;20371;-51
2021/12/12 01:23:24;;;;;;;;;;;23.10;51.70;;;;;;5116027;28;20329;-52
2021/12/12 01:25:52;;;;;;;;;;;23.10;51.70;;;;;;5097814;28;20383;-51
2021/12/12 01:28:22;;;;;;;;;;;23.20;51.80;;;;;;5115692;28;19924;-50
2021/12/12 01:30:50;;;;;;;;;;;23.10;51.70;;;;;;5114757;27;19967;-52
2021/12/12 01:33:34;;;;;;;;;;;23.20;51.80;;;;;;5115598;28;19928;-50
2021/12/12 01:36:07;;;;;;;;;;;23.10;51.70;;;;;;5115967;28;19988;-48
2021/12/12 01:38:52;;;;;;;;;;;23.10;51.70;;;;;;5115825;28;20290;-52
2021/12/12 01:41:22;;;;;;;;;;;23.10;51.70;;;;;;5115777;28;19924;-46
2021/12/12 01:43:50;;;;;;;;;;;23.10;51.70;;;;;;5115646;28;20307;-53
2021/12/12 01:46:23;;;;;;;;;;;23.10;51.70;;;;;;5114164;27;20391;-55
2021/12/12 01:48:49;;;;;;;;;;;23.10;51.70;;;;;;5115604;28;19924;-47
2021/12/12 01:51:18;;;;;;;;;;;23.10;51.70;;;;;;5115125;28;19982;-47
2021/12/12 01:53:47;;;;;;;;;;;23.10;51.70;;;;;;5115281;28;19924;-51
2021/12/12 01:56:33;;;;;;;;;;;23.10;51.70;;;;;;5115473;28;19977;-53
2021/12/12 01:59:03;;;;;;;;;;;23.10;51.70;;;;;;5115184;28;19924;-52
2021/12/12 02:01:39;;;;;;;;;;;23.10;51.70;;;;;;5114174;28;20293;-51
2021/12/12 02:04:08;;;;;;;;;;;23.10;51.70;;;;;;5114909;28;20022;-49
2021/12/12 02:06:36;;;;;;;;;;;23.00;51.60;;;;;;5114833;28;19923;-51
2021/12/12 02:09:07;;;;;;;;;;;23.10;51.70;;;;;;5114946;28;19928;-50
2021/12/12 02:11:35;;;;;;;;;;;23.10;51.70;;;;;;5115484;28;19935;-55
2021/12/12 02:14:09;;;;;;;;;;;23.10;51.70;;;;;;5097398;28;20340;-56
2021/12/12 02:16:48;;;;;;;;;;;23.00;51.60;;;;;;5113925;28;19924;-51
2021/12/12 02:19:17;;;;;;;;;;;23.00;51.60;;;;;;5114708;28;20394;-52
2021/12/12 02:22:02;;;;;;;;;;;23.00;51.60;;;;;;5114589;28;19950;-51
2021/12/12 02:35:31;;;;;;;;;;;23.00;51.60;;;;;;5114841;28;19924;-57
2021/12/12 02:37:59;;;;;;;;;;;23.00;51.70;;;;;;5114841;28;19985;-52
2021/12/12 02:40:30;;;;;;;;;;;23.00;51.60;;;;;;5114408;28;19923;-49
2021/12/12 02:42:57;;;;;;;;;;;23.00;51.60;;;;;;5114728;28;19968;-51
2021/12/12 02:45:28;;;;;;;;;;;23.00;51.70;;;;;;5113042;28;19924;-49
2021/12/12 02:48:00;;;;;;;;;;;23.00;51.70;;;;;;5114670;28;19923;-47
2021/12/12 02:50:39;;;;;;;;;;;23.00;51.70;;;;;;5114202;28;19924;-53
2021/12/12 02:53:17;;;;;;;;;;;23.00;51.70;;;;;;5096503;28;19924;-54
2021/12/12 02:55:46;;;;;;;;;;;23.00;51.70;;;;;;5114809;28;19930;-50
2021/12/12 02:58:15;;;;;;;;;;;23.00;51.70;;;;;;5114217;28;19935;-51
2021/12/12 03:00:45;;;;;;;;;;;23.00;51.70;;;;;;5113029;28;20379;-50
2021/12/12 03:03:12;;;;;;;;;;;23.00;51.70;;;;;;5114469;28;19989;-52
2021/12/12 03:05:43;;;;;;;;;;;23.00;51.70;;;;;;5114405;28;20290;-55
2021/12/12 03:08:11;;;;;;;;;;;23.00;51.70;;;;;;5114161;28;19924;-52
2021/12/12 03:10:41;;;;;;;;;;;23.00;51.70;;;;;;5114166;28;19928;-52
2021/12/12 03:13:08;;;;;;;;;;;23.00;51.70;;;;;;5114594;28;19949;-53
2021/12/12 03:15:38;;;;;;;;;;;23.00;51.70;;;;;;5112612;28;20003;-51
2021/12/12 03:18:08;;;;;;;;;;;22.90;51.60;;;;;;5117300;28;20394;-50
2021/12/12 03:20:41;;;;;;;;;;;23.00;51.70;;;;;;5118096;28;19931;-52
2021/12/12 03:23:08;;;;;;;;;;;23.00;51.70;;;;;;5117961;28;19930;-55
2021/12/12 03:25:36;;;;;;;;;;;23.00;51.70;;;;;;5100021;28;19927;-50
2021/12/12 03:28:05;;;;;;;;;;;23.00;51.70;;;;;;5118626;28;19928;-48
2021/12/12 03:30:32;;;;;;;;;;;22.90;51.60;;;;;;5117316;28;20268;-50
2021/12/12 03:33:00;;;;;;;;;;;23.00;51.70;;;;;;5118557;28;19981;-47
2021/12/12 03:35:29;;;;;;;;;;;22.90;51.60;;;;;;5118233;28;19927;-55
2021/12/12 03:37:56;;;;;;;;;;;22.90;51.60;;;;;;5117857;28;19924;-48
2021/12/12 03:40:28;;;;;;;;;;;22.90;51.60;;;;;;5118141;28;19943;-50
2021/12/12 03:42:57;;;;;;;;;;;22.90;51.60;;;;;;5117806;28;19923;-52
2021/12/12 03:45:24;;;;;;;;;;;22.90;51.60;;;;;;5118096;28;19955;-48
2021/12/12 03:47:56;;;;;;;;;;;22.90;51.60;;;;;;5117325;27;20295;-47
2021/12/12 03:50:26;;;;;;;;;;;22.90;51.60;;;;;;5117583;28;20375;-51
2021/12/12 03:52:53;;;;;;;;;;;22.90;51.60;;;;;;5117410;28;19923;-49
2021/12/12 03:55:22;;;;;;;;;;;22.90;51.60;;;;;;5117558;28;19924;-52
2021/12/12 03:57:50;;;;;;;;;;;22.90;51.60;;;;;;5117485;28;19928;-55
2021/12/12 04:00:25;;;;;;;;;;;22.90;51.60;;;;;;5117804;28;19946;-51
2021/12/12 04:02:51;;;;;;;;;;;22.90;51.70;;;;;;5116686;28;19977;-48
2021/12/12 04:05:19;;;;;;;;;;;22.90;51.70;;;;;;5117303;28;19923;-48
2021/12/12 04:07:46;;;;;;;;;;;22.90;51.70;;;;;;5117574;28;19924;-52
2021/12/12 04:10:19;;;;;;;;;;;22.90;51.70;;;;;;5117289;28;20370;-45
2021/12/12 04:12:47;;;;;;;;;;;22.90;51.70;;;;;;5118135;28;19923;-50
2021/12/12 04:15:14;;;;;;;;;;;22.80;52.20;;;;;;5099096;28;19928;-51
2021/12/12 04:17:42;;;;;;;;;;;22.90;51.70;;;;;;5116075;27;19953;-53
2021/12/12 04:20:35;;;;;;;;;;;22.80;51.60;;;;;;5116844;28;19924;-46
2021/12/12 04:23:03;;;;;;;;;;;22.90;51.70;;;;;;5094659;28;20341;-55
2021/12/12 04:25:30;;;;;;;;;;;22.80;51.60;;;;;;5117229;28;19924;-53
2021/12/12 04:27:57;;;;;;;;;;;22.80;51.60;;;;;;5117617;28;19931;-53
2021/12/12 04:30:24;;;;;;;;;;;22.80;51.60;;;;;;5116933;28;19935;-54
2021/12/12 04:32:51;;;;;;;;;;;22.80;51.70;;;;;;5115752;28;19924;-50
2021/12/12 04:35:21;;;;;;;;;;;22.80;51.70;;;;;;5117076;28;19924;-49
2021/12/12 04:37:48;;;;;;;;;;;22.80;51.70;;;;;;5117065;28;20341;-55
2021/12/12 04:40:18;;;;;;;;;;;22.80;51.70;;;;;;5116998;28;19973;-49
2021/12/12 04:42:46;;;;;;;;;;;22.80;51.70;;;;;;5116935;28;19977;-50
2021/12/12 04:45:25;;;;;;;;;;;22.80;51.70;;;;;;5116843;28;20324;-51
2021/12/12 04:50:51;;;;;;;;;;;22.80;51.70;;;;;;5116404;28;20367;-55
2021/12/12 04:53:18;;;;;;;;;;;22.80;51.70;;;;;;5116275;28;19924;-54
2021/12/12 04:55:54;;;;;;;;;;;22.80;51.70;;;;;;5116391;28;19923;-48
2021/12/12 04:58:27;;;;;;;;;;;22.80;51.70;;;;;;5116341;28;19973;-47
2021/12/12 05:01:17;;;;;;;;;;;22.80;51.70;;;;;;5116647;28;20340;-50
2021/12/12 05:03:57;;;;;;;;;;;22.80;51.70;;;;;;5116045;28;19935;-48
2021/12/12 05:06:26;;;;;;;;;;;22.80;51.70;;;;;;5116128;28;19934;-52
2021/12/12 05:08:59;;;;;;;;;;;22.80;51.70;;;;;;5116097;28;19924;-49
2021/12/12 05:11:30;;;;;;;;;;;22.80;51.70;;;;;;5116388;28;19949;-50
2021/12/12 05:14:03;;;;;;;;;;;22.80;51.70;;;;;;5115941;28;20406;-56
2021/12/12 05:16:33;;;;;;;;;;;22.80;51.70;;;;;;5115373;27;20367;-53
2021/12/12 05:19:06;;;;;;;;;;;22.80;51.70;;;;;;5115724;28;19931;-53
2021/12/12 05:21:34;;;;;;;;;;;22.80;51.70;;;;;;5116095;28;19924;-52
2021/12/12 05:24:04;;;;;;;;;;;22.80;51.70;;;;;;5115638;28;20432;-53
2021/12/12 05:26:37;;;;;;;;;;;22.80;51.70;;;;;;5115699;28;19924;-47
2021/12/12 05:29:07;;;;;;;;;;;22.80;51.70;;;;;;5115727;28;19923;-47
2021/12/12 05:31:34;;;;;;;;;;;22.80;51.70;;;;;;5115658;28;19953;-46
2021/12/12 05:34:02;;;;;;;;;;;22.80;51.70;;;;;;5114997;27;19954;-46
2021/12/12 05:36:31;;;;;;;;;;;22.80;51.70;;;;;;5115541;28;19923;-48
2021/12/12 05:38:59;;;;;;;;;;;22.80;51.70;;;;;;5115554;28;20496;-51
2021/12/12 05:41:26;;;;;;;;;;;22.80;51.70;;;;;;5115456;28;20276;-54
2021/12/12 05:43:55;;;;;;;;;;;22.80;51.70;;;;;;5115457;28;19945;-50
2021/12/12 05:46:23;;;;;;;;;;;22.80;51.70;;;;;;5115328;28;19924;-51
2021/12/12 05:48:51;;;;;;;;;;;22.80;51.70;;;;;;5114166;27;19923;-48
2021/12/12 05:51:19;;;;;;;;;;;22.80;51.70;;;;;;5115177;28;19924;-47
2021/12/12 05:53:48;;;;;;;;;;;22.70;51.70;;;;;;5115386;28;19966;-48
2021/12/12 05:56:15;;;;;;;;;;;22.80;51.70;;;;;;5115773;28;19965;-50
2021/12/12 05:58:42;;;;;;;;;;;22.70;51.70;;;;;;5097487;28;19924;-57
2021/12/12 06:01:10;;;;;;;;;;;22.80;51.70;;;;;;5115101;28;19924;-56
2021/12/12 06:03:39;;;;;;;;;;;22.70;51.70;;;;;;5114096;28;19928;-47
2021/12/12 06:06:08;;;;;;;;;;;22.70;51.70;;;;;;5114935;28;19923;-54
2021/12/12 06:08:35;;;;;;;;;;;22.70;51.70;;;;;;5115214;28;19932;-53
2021/12/12 06:11:03;;;;;;;;;;;22.70;51.70;;;;;;5115229;28;19927;-52
2021/12/12 06:13:30;;;;;;;;;;;22.70;51.70;;;;;;5115189;28;19989;-52
2021/12/12 06:15:58;;;;;;;;;;;22.70;51.70;;;;;;5114841;28;19927;-54
2021/12/12 06:18:28;;;;;;;;;;;22.70;51.70;;;;;;5113687;28;19928;-48
2021/12/12 06:20:56;;;;;;;;;;;22.70;51.70;;;;;;5114948;28;19932;-50
2021/12/12 06:23:24;;;;;;;;;;;22.70;51.70;;;;;;5114517;28;20416;-52
2021/12/12 06:25:51;;;;;;;;;;;22.70;51.70;;;;;;5114588;28;20428;-47
2021/12/12 06:28:23;;;;;;;;;;;22.70;51.70;;;;;;5114613;28;19972;-53
2021/12/12 06:30:50;;;;;;;;;;;22.70;51.70;;;;;;5114583;28;19923;-49
2021/12/12 06:33:17;;;;;;;;;;;22.70;51.70;;;;;;5113232;28;19930;-53
2021/12/12 06:35:45;;;;;;;;;;;22.70;51.70;;;;;;5114487;28;19996;-48
2021/12/12 06:38:13;;;;;;;;;;;22.70;51.70;;;;;;5114789;28;19959;-52
2021/12/12 06:40:41;;;;;;;;;;;22.70;51.70;;;;;;5114771;28;19923;-51
2021/12/12 06:43:08;;;;;;;;;;;22.70;51.70;;;;;;5114402;28;19973;-50
2021/12/12 06:45:35;;;;;;;;;;;22.70;51.70;;;;;;5114611;28;19982;-55
2021/12/12 06:48:07;;;;;;;;;;;22.70;51.70;;;;;;5113503;28;19967;-47
2021/12/12 06:50:35;;;;;;;;;;;22.70;51.70;;;;;;5113961;28;19963;-53
2021/12/12 06:53:02;;;;;;;;;;;22.70;51.70;;;;;;5113434;28;20379;-52
2021/12/12 06:55:29;;;;;;;;;;;22.70;51.70;;;;;;5114569;28;19924;-48
2021/12/12 06:57:57;;;;;;;;;;;22.70;51.70;;;;;;5114185;28;20344;-46
2021/12/12 07:00:26;;;;;;;;;;;22.70;51.70;;;;;;5114747;28;19927;-52
2021/12/12 07:02:53;;;;;;;;;;;22.70;51.70;;;;;;5113441;28;20288;-47
2021/12/12 07:05:22;;;;;;;;;;;22.70;51.70;;;;;;5114095;28;20401;-50
2021/12/12 07:07:49;;;;;;;;;;;22.70;51.70;;;;;;5114423;28;19973;-49
2021/12/12 07:10:18;;;;;;;;;;;22.70;51.70;;;;;;5114060;28;20440;-52
2021/12/12 07:12:45;;;;;;;;;;;22.70;51.70;;;;;;5114364;28;19928;-55
2021/12/12 07:15:15;;;;;;;;;;;22.70;51.70;;;;;;5114026;28;19923;-50
2021/12/12 07:17:43;;;;;;;;;;;22.70;51.70;;;;;;5114313;28;20291;-52
2021/12/12 07:20:11;;;;;;;;;;;22.70;51.70;;;;;;5113099;28;19928;-57
2021/12/12 07:22:38;;;;;;;;;;;22.70;51.70;;;;;;5114109;28;19935;-58
2021/12/12 07:25:06;;;;;;;;;;;22.70;51.70;;;;;;5113880;28;20345;-54
2021/12/12 07:27:33;;;;;;;;;;;22.70;51.70;;;;;;5113925;28;19928;-50
2021/12/12 07:30:01;;;;;;;;;;;22.70;51.70;;;;;;5113926;28;19930;-50
2021/12/12 07:32:29;;;;;;;;;;;22.70;51.70;;;;;;5113878;28;19924;-49
2021/12/12 07:34:56;;;;;;;;;;;22.70;51.70;;;;;;5112631;28;20272;-47
2021/12/12 07:37:23;;;;;;;;;;;22.70;51.70;;;;;;5113865;28;19923;-50
2021/12/12 07:39:51;;;;;;;;;;;22.70;51.70;;;;;;5113813;28;19924;-48
2021/12/12 07:42:18;;;;;;;;;;;22.70;51.60;;;;;;5114143;28;19924;-48
2021/12/12 07:44:46;;;;;;;;;;;22.70;51.70;;;;;;5114126;28;19988;-57
2021/12/12 07:47:15;;;;;;;;;;;22.70;51.60;;;;;;5113737;28;20440;-55
2021/12/12 07:49:45;;;;;;;;;;;22.70;51.60;;;;;;5112802;28;20298;-50
2021/12/12 07:52:17;;;;;;;;;;;22.70;51.60;;;;;;5113567;28;19924;-48
2021/12/12 07:54:45;;;;;;;;;;;22.70;51.60;;;;;;5113998;28;19924;-46
2021/12/12 07:57:12;;;;;;;;;;;22.70;51.60;;;;;;5113698;28;19924;-50
2021/12/12 07:59:40;;;;;;;;;;;22.70;51.60;;;;;;5113978;28;19924;-53
2021/12/12 08:02:08;;;;;;;;;;;22.70;51.60;;;;;;5095611;28;19923;-53
2021/12/12 08:04:37;;;;;;;;;;;22.70;51.50;;;;;;5116171;27;19923;-52
2021/12/12 08:07:08;;;;;;;;;;;22.70;51.50;;;;;;5117262;28;19928;-55
2021/12/12 08:09:38;;;;;;;;;;;22.70;51.50;;;;;;5117390;28;19931;-53
2021/12/12 08:12:05;;;;;;;;;;;22.70;51.50;;;;;;5117553;28;19927;-55
2021/12/12 08:14:32;;;;;;;;;;;22.70;51.50;;;;;;5117208;28;19973;-53
2021/12/12 08:16:59;;;;;;;;;;;22.70;51.40;;;;;;5117489;28;19924;-48
2021/12/12 08:19:27;;;;;;;;;;;22.70;51.40;;;;;;5115789;27;19923;-50
2021/12/12 08:21:56;;;;;;;;;;;22.80;51.50;;;;;;5117301;28;19923;-45
2021/12/12 08:24:23;;;;;;;;;;;22.70;51.40;;;;;;5099404;28;20294;-52
2021/12/12 08:26:50;;;;;;;;;;;22.70;51.40;;;;;;5116887;28;19928;-52
2021/12/12 08:29:17;;;;;;;;;;;22.70;51.40;;;;;;5116934;28;19924;-50
2021/12/12 08:31:46;;;;;;;;;;;22.70;51.40;;;;;;5116889;28;19924;-51
2021/12/12 08:34:13;;;;;;;;;;;22.80;51.50;;;;;;5115691;27;19924;-52
2021/12/12 08:36:43;;;;;;;;;;;22.70;51.40;;;;;;5117113;28;20328;-54
2021/12/12 08:39:11;;;;;;;;;;;22.80;51.40;;;;;;5116722;28;19938;-55
2021/12/12 08:41:38;;;;;;;;;;;22.80;51.40;;;;;;5117269;28;19927;-55
2021/12/12 08:44:07;;;;;;;;;;;22.80;51.50;;;;;;5116630;28;19927;-46
2021/12/12 08:46:34;;;;;;;;;;;22.80;51.40;;;;;;5116752;28;20317;-57
2021/12/12 08:49:01;;;;;;;;;;;22.80;51.40;;;;;;5115573;27;19932;-52
2021/12/12 08:51:34;;;;;;;;;;;22.80;51.40;;;;;;5116963;28;19924;-51
2021/12/12 08:54:12;;;;;;;;;;;22.80;51.40;;;;;;5116511;28;20268;-53
2021/12/12 08:56:43;;;;;;;;;;;22.80;51.40;;;;;;5098411;28;20398;-55
2021/12/12 08:59:19;;;;;;;;;;;22.80;51.30;;;;;;5116402;28;20028;-52
2021/12/12 09:01:47;;;;;;;;;;;22.80;51.30;;;;;;5116868;28;19924;-48
2021/12/12 09:04:15;;;;;;;;;;;22.80;51.30;;;;;;5114978;28;19936;-52
2021/12/12 09:06:55;;;;;;;;;;;22.80;51.20;;;;;;5116188;28;19935;-48
2021/12/12 09:09:24;;;;;;;;;;;22.80;51.20;;;;;;5116437;28;19924;-53
2021/12/12 09:12:29;;;;;;;;;;;22.80;51.20;;;;;;5116089;28;19969;-55
2021/12/12 09:15:02;;;;;;;;;;;22.80;51.10;;;;;;4996975;28;19926;-51
2021/12/12 09:17:32;;;;;;;;;;;22.80;51.70;;;;;;5013620;28;20460;-55
2021/12/12 09:20:03;;;;;;;;;;;22.90;51.20;;;;;;5020263;28;20373;-52
2021/12/12 09:22:35;;;;;;;;;;;22.90;51.10;;;;;;5033200;28;19968;-46
2021/12/12 09:25:10;;;;;;;;;;;22.90;51.10;;;;;;5033312;28;20325;-47
2021/12/12 09:27:38;;;;;;;;;;;22.90;51.00;;;;;;5033213;28;19933;-51
2021/12/12 09:30:07;;;;;;;;;;;22.90;51.00;;;;;;5033256;28;20406;-53
2021/12/12 09:32:41;;;;;;;;;;;22.90;51.00;;;;;;5033130;28;19945;-51
2021/12/12 09:35:10;;;;;;;;;;;22.90;51.00;;;;;;5031794;28;20439;-50
2021/12/12 09:37:46;;;;;;;;;;;23.00;51.00;;;;;;5033899;28;19963;-54
2021/12/12 09:40:13;;;;;;;;;;;23.00;51.00;;;;;;5033473;28;19952;-54
2021/12/12 09:42:39;;;;;;;;;;;23.00;50.90;;;;;;5032990;28;19925;-56
2021/12/12 09:45:06;;;;;;;;;;;23.00;50.90;;;;;;5048707;28;19924;-48
2021/12/12 09:53:44;;;;;;;;;;;23.00;50.80;;;;;;5095067;28;19924;-50
2021/12/12 09:56:18;;;;;;;;;;;23.00;50.80;;;;;;5094957;28;19924;-49
2021/12/12 09:58:52;;;;;;;;;;;23.00;50.80;;;;;;5095190;28;19993;-51
2021/12/12 10:01:22;;;;;;;;;;;23.00;50.70;;;;;;5094812;28;19931;-48
2021/12/12 10:03:55;;;;;;;;;;;23.10;50.80;;;;;;5094752;28;19971;-52
2021/12/12 10:06:34;;;;;;;;;;;23.10;50.70;;;;;;5093559;28;19925;-48
2021/12/12 10:09:10;;;;;;;;;;;23.10;50.70;;;;;;5094982;28;19936;-52
2021/12/12 10:11:47;;;;;;;;;;;23.10;50.70;;;;;;5094608;28;20371;-58
2021/12/12 10:14:17;;;;;;;;;;;23.10;50.70;;;;;;5093698;28;19924;-46
2021/12/12 10:17:09;;;;;;;;;;;23.10;50.70;;;;;;5094889;28;20323;-49
2021/12/12 10:19:39;;;;;;;;;;;23.10;50.60;;;;;;5107288;28;19928;-53
2021/12/12 10:22:09;;;;;;;;;;;23.10;50.60;;;;;;5114178;28;20371;-50
2021/12/12 10:24:44;;;;;;;;;;;23.10;50.60;;;;;;5114702;28;19972;-56
2021/12/12 10:27:20;;;;;;;;;;;23.10;50.50;;;;;;5114419;28;19977;-48
2021/12/12 10:29:54;;;;;;;;;;;23.10;50.50;;;;;;5114621;28;19923;-54
2021/12/12 10:32:24;;;;;;;;;;;23.10;50.50;;;;;;5096648;28;19969;-48
2021/12/12 10:34:53;;;;;;;;;;;23.20;50.50;;;;;;5095947;28;19973;-51
2021/12/12 10:37:20;;;;;;;;;;;23.20;50.50;;;;;;5116659;27;19946;-56
2021/12/12 10:39:52;;;;;;;;;;;23.20;50.50;;;;;;5135025;27;19974;-54
2021/12/12 10:42:22;;;;;;;;;;;23.20;50.40;;;;;;5135291;27;19924;-50
2021/12/12 10:45:09;;;;;;;;;;;23.20;50.40;;;;;;5134934;27;19930;-48
2021/12/12 10:47:49;;;;;;;;;;;23.20;50.40;;;;;;5135605;27;20073;-51
2021/12/12 10:50:26;;;;;;;;;;;23.20;50.40;;;;;;5130953;27;19927;-52
2021/12/12 10:52:58;;;;;;;;;;;23.20;50.40;;;;;;5114227;28;20393;-55
2021/12/12 10:55:45;;;;;;;;;;;23.30;50.50;;;;;;5114594;28;19949;-55
2021/12/12 10:58:38;;;;;;;;;;;23.30;50.40;;;;;;5012252;28;19968;-52
2021/12/12 11:01:14;;;;;;;;;;;23.30;50.40;;;;;;5010434;28;19972;-50
2021/12/12 11:03:44;;;;;;;;;;;23.30;50.30;;;;;;5012097;28;19925;-50
2021/12/12 11:06:11;;;;;;;;;;;23.30;50.30;;;;;;4999348;28;20420;-49
2021/12/12 11:08:57;;;;;;;;;;;23.30;50.20;;;;;;5011820;28;19929;-51
2021/12/12 11:11:26;;;;;;;;;;;23.30;50.20;;;;;;5011875;28;19949;-48
2021/12/12 11:14:05;;;;;;;;;;;23.30;50.20;;;;;;5012039;28;19960;-51
2021/12/12 11:16:38;;;;;;;;;;;23.40;50.20;;;;;;5012027;28;19964;-49
2021/12/12 11:19:12;;;;;;;;;;;23.40;50.20;;;;;;5011615;28;19926;-50
2021/12/12 11:21:50;;;;;;;;;;;23.40;50.20;;;;;;5021283;28;19925;-48
2021/12/12 11:24:26;;;;;;;;;;;23.40;50.10;;;;;;5031435;28;19939;-58
2021/12/12 11:27:00;;;;;;;;;;;23.40;50.10;;;;;;5031348;28;19925;-53
2021/12/12 11:29:32;;;;;;;;;;;23.50;50.10;;;;;;5031601;28;19925;-50
2021/12/12 11:32:28;;;;;;;;;;;23.50;50.10;;;;;;5031365;28;19979;-54
2021/12/12 11:34:57;;;;;;;;;;;23.50;50.10;;;;;;5010923;28;19925;-53
2021/12/12 11:37:48;;;;;;;;;;;23.50;50.00;;;;;;5050216;28;19992;-55
2021/12/12 11:40:20;;;;;;;;;;;23.50;50.00;;;;;;5055504;28;19932;-56
2021/12/12 11:42:53;;;;;;;;;;;23.50;49.90;;;;;;5055126;28;20427;-51
2021/12/12 11:45:25;;;;;;;;;;;23.50;49.90;;;;;;5055171;28;19932;-53
2021/12/12 11:47:53;;;;;;;;;;;23.50;49.90;;;;;;5054996;28;19929;-51
2021/12/12 11:50:23;;;;;;;;;;;23.50;49.90;;;;;;5055115;28;19931;-53
2021/12/12 11:53:02;;;;;;;;;;;23.50;49.90;;;;;;5053648;28;19929;-49
2021/12/12 11:55:35;;;;;;;;;;;23.60;50.00;;;;;;5055223;28;19951;-51
2021/12/12 11:58:03;;;;;;;;;;;23.60;49.90;;;;;;5054968;28;20327;-54
2021/12/12 12:00:32;;;;;;;;;;;23.60;49.90;;;;;;5054825;28;19924;-51
2021/12/12 12:03:14;;;;;;;;;;;23.60;49.90;;;;;;5054752;28;19978;-53
2021/12/12 12:05:50;;;;;;;;;;;23.60;49.90;;;;;;5055197;28;19932;-51
2021/12/12 12:08:17;;;;;;;;;;;23.60;49.80;;;;;;5054555;28;19928;-54
2021/12/12 12:10:59;;;;;;;;;;;23.60;49.90;;;;;;5069509;28;19924;-51
2021/12/12 12:13:26;;;;;;;;;;;23.60;49.80;;;;;;5117570;28;19973;-54
2021/12/12 12:16:03;;;;;;;;;;;23.60;49.90;;;;;;5099534;28;19924;-49
2021/12/12 12:18:49;;;;;;;;;;;23.70;49.90;;;;;;5117237;28;20334;-56
2021/12/12 12:21:23;;;;;;;;;;;23.70;49.90;;;;;;5115962;28;20060;-52
2021/12/12 12:26:51;;;;;;;;;;;23.70;49.90;;;;;;5116955;28;19931;-55
2021/12/12 12:29:21;;;;;;;;;;;23.70;49.90;;;;;;5117261;28;19923;-54
2021/12/12 12:32:06;;;;;;;;;;;23.70;49.90;;;;;;5116880;28;20383;-54
2021/12/12 12:34:51;;;;;;;;;;;23.70;49.90;;;;;;5116868;28;19955;-56
2021/12/12 12:37:38;;;;;;;;;;;23.70;49.90;;;;;;5115510;28;20447;-48
2021/12/12 12:40:23;;;;;;;;;;;23.70;49.80;;;;;;5117071;28;19924;-54
2021/12/12 12:43:09;;;;;;;;;;;23.70;49.90;;;;;;5116717;28;19924;-56
2021/12/12 12:45:55;;;;;;;;;;;23.70;49.90;;;;;;5116645;28;19928;-54
2021/12/12 12:48:25;;;;;;;;;;;23.70;49.90;;;;;;5116740;28;19923;-54
2021/12/12 12:51:11;;;;;;;;;;;23.70;50.00;;;;;;5116438;28;20329;-50
2021/12/12 12:53:38;;;;;;;;;;;23.70;49.90;;;;;;5115093;27;19977;-54
2021/12/12 12:56:27;;;;;;;;;;;23.70;50.00;;;;;;5116692;28;19924;-46
2021/12/12 12:58:54;;;;;;;;;;;23.70;49.90;;;;;;5116358;28;19924;-50
2021/12/12 13:01:41;;;;;;;;;;;23.70;49.90;;;;;;5116354;28;20379;-48
2021/12/12 13:04:29;;;;;;;;;;;23.70;50.00;;;;;;5116296;28;19978;-53
2021/12/12 13:07:03;;;;;;;;;;;23.70;50.00;;;;;;5114980;28;19969;-50
2021/12/12 13:09:42;;;;;;;;;;;23.70;50.00;;;;;;5116221;28;19973;-53
2021/12/12 13:12:09;;;;;;;;;;;23.70;50.00;;;;;;5116171;28;20427;-49
2021/12/12 13:14:58;;;;;;;;;;;23.70;50.00;;;;;;5116315;28;19928;-50
2021/12/12 13:17:31;;;;;;;;;;;23.70;50.00;;;;;;5116472;28;19944;-52
2021/12/12 13:20:19;;;;;;;;;;;23.70;50.00;;;;;;5115737;28;19971;-52
2021/12/12 13:23:14;;;;;;;;;;;23.70;50.00;;;;;;5114918;27;19931;-49
2021/12/12 13:25:46;;;;;;;;;;;23.70;50.10;;;;;;5113387;28;19923;-48
2021/12/12 13:28:18;;;;;;;;;;;23.70;50.10;;;;;;5115780;28;19924;-49
2021/12/12 13:31:06;;;;;;;;;;;23.70;50.10;;;;;;5098321;28;19924;-47
2021/12/12 13:33:33;;;;;;;;;;;23.70;50.10;;;;;;5116073;28;20302;-48
2021/12/12 13:36:06;;;;;;;;;;;23.70;50.10;;;;;;5115978;28;19924;-54
2021/12/12 13:38:50;;;;;;;;;;;23.70;50.20;;;;;;5114535;27;19924;-55
2021/12/12 13:41:32;;;;;;;;;;;23.70;50.10;;;;;;5115902;28;19927;-50
2021/12/12 13:44:24;;;;;;;;;;;23.70;50.20;;;;;;5115524;28;20023;-53
2021/12/12 13:46:57;;;;;;;;;;;23.70;50.80;;;;;;5115690;28;19923;-50
2021/12/12 13:49:25;;;;;;;;;;;23.70;50.20;;;;;;5115613;28;20340;-53
2021/12/12 13:52:13;;;;;;;;;;;23.70;50.20;;;;;;5080705;28;19927;-49
2021/12/12 13:54:53;;;;;;;;;;;23.70;50.20;;;;;;5080591;28;19931;-46
2021/12/12 13:57:31;;;;;;;;;;;23.70;50.20;;;;;;5115576;28;19924;-49
2021/12/12 14:00:01;;;;;;;;;;;23.70;50.20;;;;;;5114963;28;19924;-48
2021/12/12 14:02:28;;;;;;;;;;;23.70;50.30;;;;;;5115168;28;19927;-52
2021/12/12 14:05:07;;;;;;;;;;;23.70;50.30;;;;;;5115107;28;19923;-48
2021/12/12 14:07:40;;;;;;;;;;;23.70;50.30;;;;;;5113833;27;19928;-50
2021/12/12 14:10:15;;;;;;;;;;;23.70;50.30;;;;;;5115116;28;19927;-48
2021/12/12 14:12:44;;;;;;;;;;;23.70;50.30;;;;;;5115261;28;20336;-50
2021/12/12 14:15:13;;;;;;;;;;;23.70;50.30;;;;;;5115191;28;19931;-47
2021/12/12 14:17:44;;;;;;;;;;;23.70;50.30;;;;;;5114842;28;20036;-45
2021/12/12 14:20:13;;;;;;;;;;;23.70;50.30;;;;;;5114665;28;20010;-51
2021/12/12 14:22:41;;;;;;;;;;;23.70;50.30;;;;;;5113582;27;19935;-46
2021/12/12 14:25:09;;;;;;;;;;;23.70;50.40;;;;;;5097091;28;19945;-49
2021/12/12 14:27:37;;;;;;;;;;;23.70;50.40;;;;;;5114854;28;19928;-49
2021/12/12 14:30:08;;;;;;;;;;;23.70;50.40;;;;;;5115187;28;19928;-49
2021/12/12 14:32:37;;;;;;;;;;;23.70;50.50;;;;;;5114626;28;19930;-53
2021/12/12 14:35:08;;;;;;;;;;;23.70;50.50;;;;;;5115728;28;19931;-51
2021/12/12 14:37:36;;;;;;;;;;;23.70;50.50;;;;;;5113418;28;19924;-52
2021/12/12 14:40:09;;;;;;;;;;;23.70;50.50;;;;;;5114475;28;19930;-49
2021/12/12 14:42:38;;;;;;;;;;;23.70;50.50;;;;;;5114782;28;20340;-47
2021/12/12 14:45:08;;;;;;;;;;;23.60;50.50;;;;;;5114434;28;19928;-52
2021/12/12 14:47:37;;;;;;;;;;;23.70;50.60;;;;;;5114652;28;20010;-49
2021/12/12 14:50:24;;;;;;;;;;;23.70;50.50;;;;;;5114260;28;19977;-46
2021/12/12 14:52:56;;;;;;;;;;;23.60;50.50;;;;;;5113176;28;19946;-53
2021/12/12 14:55:33;;;;;;;;;;;23.70;50.60;;;;;;5114558;28;19924;-47
2021/12/12 14:58:05;;;;;;;;;;;23.60;50.50;;;;;;5114873;28;19924;-49
2021/12/12 15:00:37;;;;;;;;;;;23.60;50.60;;;;;;5114570;28;20362;-54
2021/12/12 15:03:06;;;;;;;;;;;23.60;50.60;;;;;;5114219;28;19924;-49
2021/12/12 15:05:41;;;;;;;;;;;23.60;50.70;;;;;;5114469;28;19923;-50